sensor_id;sensor_type;location;lat;lon;timestamp;P1;durP1;ratioP1;P2;durP2;ratioP2
74170;SDS011;62526;50.948;6.590;2023-08-12T00:00:48;24.60;;;15.25;;
74170;SDS011;62526;50.948;6.590;2023-08-12T00:03:14;21.25;;;15.50;;
74170;SDS011;62526;50.948;6.590;2023-08-12T00:05:41;17.65;;;13.52;;
74170;SDS011;62526;50.948;6.590;2023-08-12T00:08:07;18.58;;;12.90;;
74170;SDS011;62526;50.948;6.590;2023-08-12T00:10:35;17.75;;;13.73;;
74170;SDS011;62526;50.948;6.590;2023-08-12T00:13:02;23.55;;;15.40;;
74170;SDS011;62526;50.948;6.590;2023-08-12T00:15:29;21.50;;;14.82;;
74170;SDS011;62526;50.948;6.590;2023-08-12T00:17:57;17.02;;;13.90;;
74170;SDS011;62526;50.948;6.590;2023-08-12T00:20:23;19.73;;;14.13;;
74170;SDS011;62526;50.948;6.590;2023-08-12T00:22:51;16.40;;;13.55;;
74170;SDS011;62526;50.948;6.590;2023-08-12T00:25:17;18.37;;;14.10;;
74170;SDS011;62526;50.948;6.590;2023-08-12T00:27:44;23.38;;;15.27;;
74170;SDS011;62526;50.948;6.590;2023-08-12T00:30:10;16.62;;;14.43;;
74170;SDS011;62526;50.948;6.590;2023-08-12T00:32:37;25.85;;;15.50;;
74170;SDS011;62526;50.948;6.590;2023-08-12T00:35:04;22.48;;;16.20;;
74170;SDS011;62526;50.948;6.590;2023-08-12T00:37:31;21.15;;;15.48;;
74170;SDS011;62526;50.948;6.590;2023-08-12T00:39:58;23.33;;;16.58;;
74170;SDS011;62526;50.948;6.590;2023-08-12T00:42:24;22.80;;;16.62;;
74170;SDS011;62526;50.948;6.590;2023-08-12T00:44:51;23.60;;;15.75;;
74170;SDS011;62526;50.948;6.590;2023-08-12T00:47:18;21.85;;;17.02;;
74170;SDS011;62526;50.948;6.590;2023-08-12T00:49:45;20.70;;;16.10;;
74170;SDS011;62526;50.948;6.590;2023-08-12T00:52:12;23.98;;;16.42;;
74170;SDS011;62526;50.948;6.590;2023-08-12T00:54:38;19.95;;;15.43;;
74170;SDS011;62526;50.948;6.590;2023-08-12T00:57:06;20.33;;;15.38;;
74170;SDS011;62526;50.948;6.590;2023-08-12T00:59:32;20.12;;;14.82;;
74170;SDS011;62526;50.948;6.590;2023-08-12T01:01:59;21.75;;;15.40;;
74170;SDS011;62526;50.948;6.590;2023-08-12T01:04:25;20.58;;;15.50;;
74170;SDS011;62526;50.948;6.590;2023-08-12T01:06:53;21.35;;;15.20;;
74170;SDS011;62526;50.948;6.590;2023-08-12T01:09:19;22.58;;;16.87;;
74170;SDS011;62526;50.948;6.590;2023-08-12T01:11:49;23.25;;;15.82;;
74170;SDS011;62526;50.948;6.590;2023-08-12T01:14:15;21.15;;;15.98;;
74170;SDS011;62526;50.948;6.590;2023-08-12T01:16:49;18.15;;;14.93;;
74170;SDS011;62526;50.948;6.590;2023-08-12T01:19:14;21.65;;;15.98;;
74170;SDS011;62526;50.948;6.590;2023-08-12T01:21:40;20.02;;;15.25;;
74170;SDS011;62526;50.948;6.590;2023-08-12T01:24:04;23.95;;;16.45;;
74170;SDS011;62526;50.948;6.590;2023-08-12T01:26:31;22.40;;;16.23;;
74170;SDS011;62526;50.948;6.590;2023-08-12T01:28:58;24.77;;;16.25;;
74170;SDS011;62526;50.948;6.590;2023-08-12T01:31:29;21.65;;;16.35;;
74170;SDS011;62526;50.948;6.590;2023-08-12T01:33:55;26.33;;;17.55;;
74170;SDS011;62526;50.948;6.590;2023-08-12T01:36:21;23.23;;;17.50;;
74170;SDS011;62526;50.948;6.590;2023-08-12T01:38:48;24.37;;;17.45;;
74170;SDS011;62526;50.948;6.590;2023-08-12T01:41:15;27.45;;;18.48;;
74170;SDS011;62526;50.948;6.590;2023-08-12T01:43:42;28.98;;;19.75;;
74170;SDS011;62526;50.948;6.590;2023-08-12T01:46:08;27.48;;;19.12;;
74170;SDS011;62526;50.948;6.590;2023-08-12T01:48:36;23.00;;;18.05;;
74170;SDS011;62526;50.948;6.590;2023-08-12T01:51:04;28.52;;;18.83;;
74170;SDS011;62526;50.948;6.590;2023-08-12T01:53:31;27.77;;;18.95;;
74170;SDS011;62526;50.948;6.590;2023-08-12T01:55:58;31.25;;;21.10;;
74170;SDS011;62526;50.948;6.590;2023-08-12T01:58:25;29.87;;;20.00;;
74170;SDS011;62526;50.948;6.590;2023-08-12T02:00:52;31.45;;;21.00;;
74170;SDS011;62526;50.948;6.590;2023-08-12T02:03:19;28.50;;;20.12;;
74170;SDS011;62526;50.948;6.590;2023-08-12T02:05:45;35.15;;;20.75;;
74170;SDS011;62526;50.948;6.590;2023-08-12T02:08:12;31.67;;;21.77;;
74170;SDS011;62526;50.948;6.590;2023-08-12T02:10:38;27.73;;;20.88;;
74170;SDS011;62526;50.948;6.590;2023-08-12T02:13:06;31.87;;;19.67;;
74170;SDS011;62526;50.948;6.590;2023-08-12T02:15:33;26.92;;;19.25;;
74170;SDS011;62526;50.948;6.590;2023-08-12T02:17:59;31.12;;;19.75;;
74170;SDS011;62526;50.948;6.590;2023-08-12T02:20:27;32.22;;;20.02;;
74170;SDS011;62526;50.948;6.590;2023-08-12T02:22:53;32.38;;;20.10;;
74170;SDS011;62526;50.948;6.590;2023-08-12T02:25:21;30.62;;;20.17;;
74170;SDS011;62526;50.948;6.590;2023-08-12T02:27:48;28.55;;;20.88;;
74170;SDS011;62526;50.948;6.590;2023-08-12T02:30:15;33.38;;;21.10;;
74170;SDS011;62526;50.948;6.590;2023-08-12T02:32:42;29.95;;;19.95;;
74170;SDS011;62526;50.948;6.590;2023-08-12T02:35:09;30.20;;;19.35;;
74170;SDS011;62526;50.948;6.590;2023-08-12T02:37:35;29.25;;;20.77;;
74170;SDS011;62526;50.948;6.590;2023-08-12T02:40:03;30.98;;;19.40;;
74170;SDS011;62526;50.948;6.590;2023-08-12T02:42:31;29.77;;;20.65;;
74170;SDS011;62526;50.948;6.590;2023-08-12T02:44:58;33.70;;;21.10;;
74170;SDS011;62526;50.948;6.590;2023-08-12T02:47:26;30.35;;;20.55;;
74170;SDS011;62526;50.948;6.590;2023-08-12T02:49:53;32.63;;;20.30;;
74170;SDS011;62526;50.948;6.590;2023-08-12T02:52:20;33.45;;;22.33;;
74170;SDS011;62526;50.948;6.590;2023-08-12T02:54:47;28.40;;;19.95;;
74170;SDS011;62526;50.948;6.590;2023-08-12T02:57:16;25.70;;;20.02;;
74170;SDS011;62526;50.948;6.590;2023-08-12T02:59:42;33.35;;;21.08;;
74170;SDS011;62526;50.948;6.590;2023-08-12T03:02:09;31.83;;;21.77;;
74170;SDS011;62526;50.948;6.590;2023-08-12T03:04:36;31.77;;;20.85;;
74170;SDS011;62526;50.948;6.590;2023-08-12T03:07:04;29.37;;;20.75;;
74170;SDS011;62526;50.948;6.590;2023-08-12T03:09:30;31.62;;;21.90;;
74170;SDS011;62526;50.948;6.590;2023-08-12T03:11:57;33.92;;;21.08;;
74170;SDS011;62526;50.948;6.590;2023-08-12T03:14:24;36.45;;;21.52;;
74170;SDS011;62526;50.948;6.590;2023-08-12T03:16:50;30.75;;;20.70;;
74170;SDS011;62526;50.948;6.590;2023-08-12T03:19:17;31.55;;;20.12;;
74170;SDS011;62526;50.948;6.590;2023-08-12T03:21:43;27.05;;;20.10;;
74170;SDS011;62526;50.948;6.590;2023-08-12T03:24:11;26.02;;;19.00;;
74170;SDS011;62526;50.948;6.590;2023-08-12T03:26:38;33.50;;;20.60;;
74170;SDS011;62526;50.948;6.590;2023-08-12T03:29:04;27.08;;;19.42;;
74170;SDS011;62526;50.948;6.590;2023-08-12T03:31:33;31.42;;;18.35;;
74170;SDS011;62526;50.948;6.590;2023-08-12T03:34:00;26.27;;;18.27;;
74170;SDS011;62526;50.948;6.590;2023-08-12T03:36:27;26.62;;;17.42;;
74170;SDS011;62526;50.948;6.590;2023-08-12T03:38:54;25.42;;;18.02;;
74170;SDS011;62526;50.948;6.590;2023-08-12T03:41:21;26.00;;;20.20;;
74170;SDS011;62526;50.948;6.590;2023-08-12T03:43:48;24.90;;;19.05;;
74170;SDS011;62526;50.948;6.590;2023-08-12T03:46:17;27.02;;;17.75;;
74170;SDS011;62526;50.948;6.590;2023-08-12T03:48:41;26.98;;;18.60;;
74170;SDS011;62526;50.948;6.590;2023-08-12T03:51:07;35.00;;;19.67;;
74170;SDS011;62526;50.948;6.590;2023-08-12T03:53:34;28.08;;;18.83;;
74170;SDS011;62526;50.948;6.590;2023-08-12T03:56:01;26.02;;;18.48;;
74170;SDS011;62526;50.948;6.590;2023-08-12T03:58:29;25.37;;;17.30;;
74170;SDS011;62526;50.948;6.590;2023-08-12T04:00:55;23.83;;;17.75;;
74170;SDS011;62526;50.948;6.590;2023-08-12T04:03:22;26.73;;;19.05;;
74170;SDS011;62526;50.948;6.590;2023-08-12T04:05:50;24.92;;;18.33;;
74170;SDS011;62526;50.948;6.590;2023-08-12T04:08:16;24.25;;;17.73;;
74170;SDS011;62526;50.948;6.590;2023-08-12T04:10:44;27.17;;;17.80;;
74170;SDS011;62526;50.948;6.590;2023-08-12T04:13:10;23.50;;;17.62;;
74170;SDS011;62526;50.948;6.590;2023-08-12T04:15:37;24.55;;;16.73;;
74170;SDS011;62526;50.948;6.590;2023-08-12T04:18:04;21.92;;;16.30;;
74170;SDS011;62526;50.948;6.590;2023-08-12T04:20:31;18.73;;;15.48;;
74170;SDS011;62526;50.948;6.590;2023-08-12T04:22:57;20.98;;;15.75;;
74170;SDS011;62526;50.948;6.590;2023-08-12T04:25:25;24.37;;;14.85;;
74170;SDS011;62526;50.948;6.590;2023-08-12T04:27:51;21.95;;;14.30;;
74170;SDS011;62526;50.948;6.590;2023-08-12T04:30:17;20.73;;;14.55;;
74170;SDS011;62526;50.948;6.590;2023-08-12T04:32:44;21.12;;;14.43;;
74170;SDS011;62526;50.948;6.590;2023-08-12T04:35:11;21.20;;;14.40;;
74170;SDS011;62526;50.948;6.590;2023-08-12T04:37:37;25.45;;;17.05;;
74170;SDS011;62526;50.948;6.590;2023-08-12T04:40:05;21.48;;;16.48;;
74170;SDS011;62526;50.948;6.590;2023-08-12T04:42:34;28.95;;;17.52;;
74170;SDS011;62526;50.948;6.590;2023-08-12T04:45:00;22.90;;;17.65;;
74170;SDS011;62526;50.948;6.590;2023-08-12T04:47:27;26.65;;;17.70;;
74170;SDS011;62526;50.948;6.590;2023-08-12T04:49:54;27.30;;;17.87;;
74170;SDS011;62526;50.948;6.590;2023-08-12T04:52:21;25.67;;;19.27;;
74170;SDS011;62526;50.948;6.590;2023-08-12T04:54:47;24.77;;;18.35;;
74170;SDS011;62526;50.948;6.590;2023-08-12T04:57:14;28.23;;;19.15;;
74170;SDS011;62526;50.948;6.590;2023-08-12T04:59:40;36.17;;;20.98;;
74170;SDS011;62526;50.948;6.590;2023-08-12T05:02:08;34.88;;;22.23;;
74170;SDS011;62526;50.948;6.590;2023-08-12T05:04:34;31.98;;;22.33;;
74170;SDS011;62526;50.948;6.590;2023-08-12T05:07:01;30.45;;;22.75;;
74170;SDS011;62526;50.948;6.590;2023-08-12T05:09:28;34.72;;;22.52;;
74170;SDS011;62526;50.948;6.590;2023-08-12T05:11:55;34.67;;;22.83;;
74170;SDS011;62526;50.948;6.590;2023-08-12T05:14:22;36.72;;;22.62;;
74170;SDS011;62526;50.948;6.590;2023-08-12T05:16:48;33.08;;;23.67;;
74170;SDS011;62526;50.948;6.590;2023-08-12T05:19:15;32.83;;;23.10;;
74170;SDS011;62526;50.948;6.590;2023-08-12T05:21:42;32.92;;;23.10;;
74170;SDS011;62526;50.948;6.590;2023-08-12T05:24:08;30.90;;;23.83;;
74170;SDS011;62526;50.948;6.590;2023-08-12T05:26:35;35.10;;;23.38;;
74170;SDS011;62526;50.948;6.590;2023-08-12T05:29:02;32.50;;;24.12;;
74170;SDS011;62526;50.948;6.590;2023-08-12T05:31:30;31.55;;;23.30;;
74170;SDS011;62526;50.948;6.590;2023-08-12T05:33:58;39.25;;;24.70;;
74170;SDS011;62526;50.948;6.590;2023-08-12T05:36:25;32.95;;;23.50;;
74170;SDS011;62526;50.948;6.590;2023-08-12T05:38:53;39.88;;;24.98;;
74170;SDS011;62526;50.948;6.590;2023-08-12T05:41:19;30.75;;;22.55;;
74170;SDS011;62526;50.948;6.590;2023-08-12T05:43:47;29.33;;;21.02;;
74170;SDS011;62526;50.948;6.590;2023-08-12T05:46:13;28.00;;;20.50;;
74170;SDS011;62526;50.948;6.590;2023-08-12T05:48:39;29.85;;;18.60;;
74170;SDS011;62526;50.948;6.590;2023-08-12T05:51:07;24.48;;;17.10;;
74170;SDS011;62526;50.948;6.590;2023-08-12T05:53:33;28.15;;;18.10;;
74170;SDS011;62526;50.948;6.590;2023-08-12T05:56:00;29.37;;;18.67;;
74170;SDS011;62526;50.948;6.590;2023-08-12T05:58:27;26.23;;;19.80;;
74170;SDS011;62526;50.948;6.590;2023-08-12T06:00:54;28.38;;;19.05;;
74170;SDS011;62526;50.948;6.590;2023-08-12T06:03:21;26.00;;;18.90;;
74170;SDS011;62526;50.948;6.590;2023-08-12T06:05:47;21.83;;;15.73;;
74170;SDS011;62526;50.948;6.590;2023-08-12T06:08:15;19.50;;;14.45;;
74170;SDS011;62526;50.948;6.590;2023-08-12T06:10:41;22.92;;;15.82;;
74170;SDS011;62526;50.948;6.590;2023-08-12T06:13:08;21.70;;;14.87;;
74170;SDS011;62526;50.948;6.590;2023-08-12T06:15:36;22.70;;;16.05;;
74170;SDS011;62526;50.948;6.590;2023-08-12T06:18:03;22.95;;;15.77;;
74170;SDS011;62526;50.948;6.590;2023-08-12T06:20:30;20.35;;;14.98;;
74170;SDS011;62526;50.948;6.590;2023-08-12T06:22:58;19.50;;;14.13;;
74170;SDS011;62526;50.948;6.590;2023-08-12T06:25:24;17.90;;;11.98;;
74170;SDS011;62526;50.948;6.590;2023-08-12T06:27:51;15.43;;;11.05;;
74170;SDS011;62526;50.948;6.590;2023-08-12T06:30:18;14.70;;;9.25;;
74170;SDS011;62526;50.948;6.590;2023-08-12T06:32:47;10.98;;;8.88;;
74170;SDS011;62526;50.948;6.590;2023-08-12T06:35:13;11.52;;;8.02;;
74170;SDS011;62526;50.948;6.590;2023-08-12T06:37:40;11.98;;;7.37;;
74170;SDS011;62526;50.948;6.590;2023-08-12T06:40:07;9.38;;;6.75;;
74170;SDS011;62526;50.948;6.590;2023-08-12T06:42:34;8.25;;;7.22;;
74170;SDS011;62526;50.948;6.590;2023-08-12T06:45:01;7.70;;;6.72;;
74170;SDS011;62526;50.948;6.590;2023-08-12T06:47:28;7.90;;;6.40;;
74170;SDS011;62526;50.948;6.590;2023-08-12T06:49:55;9.88;;;6.80;;
74170;SDS011;62526;50.948;6.590;2023-08-12T06:52:21;6.15;;;5.55;;
74170;SDS011;62526;50.948;6.590;2023-08-12T06:54:48;7.90;;;5.55;;
74170;SDS011;62526;50.948;6.590;2023-08-12T06:57:15;7.60;;;4.80;;
74170;SDS011;62526;50.948;6.590;2023-08-12T06:59:41;8.13;;;4.50;;
74170;SDS011;62526;50.948;6.590;2023-08-12T07:02:09;5.60;;;4.60;;
74170;SDS011;62526;50.948;6.590;2023-08-12T07:04:36;14.85;;;4.53;;
74170;SDS011;62526;50.948;6.590;2023-08-12T07:07:02;5.07;;;4.05;;
74170;SDS011;62526;50.948;6.590;2023-08-12T07:09:31;7.15;;;4.43;;
74170;SDS011;62526;50.948;6.590;2023-08-12T07:11:57;5.82;;;3.95;;
74170;SDS011;62526;50.948;6.590;2023-08-12T07:14:24;5.57;;;3.50;;
74170;SDS011;62526;50.948;6.590;2023-08-12T07:16:51;5.75;;;3.87;;
74170;SDS011;62526;50.948;6.590;2023-08-12T07:19:18;7.57;;;4.05;;
74170;SDS011;62526;50.948;6.590;2023-08-12T07:21:44;7.25;;;4.10;;
74170;SDS011;62526;50.948;6.590;2023-08-12T07:24:11;4.55;;;3.28;;
74170;SDS011;62526;50.948;6.590;2023-08-12T07:26:38;4.80;;;3.50;;
74170;SDS011;62526;50.948;6.590;2023-08-12T07:29:05;4.82;;;3.58;;
74170;SDS011;62526;50.948;6.590;2023-08-12T07:31:32;5.40;;;3.58;;
74170;SDS011;62526;50.948;6.590;2023-08-12T07:33:58;5.30;;;4.07;;
74170;SDS011;62526;50.948;6.590;2023-08-12T07:36:25;5.37;;;4.07;;
74170;SDS011;62526;50.948;6.590;2023-08-12T07:38:51;5.40;;;4.30;;
74170;SDS011;62526;50.948;6.590;2023-08-12T07:41:18;6.60;;;4.37;;
74170;SDS011;62526;50.948;6.590;2023-08-12T07:43:45;7.25;;;4.35;;
74170;SDS011;62526;50.948;6.590;2023-08-12T07:46:12;9.82;;;4.65;;
74170;SDS011;62526;50.948;6.590;2023-08-12T07:48:38;6.25;;;4.25;;
74170;SDS011;62526;50.948;6.590;2023-08-12T07:51:06;5.37;;;4.05;;
74170;SDS011;62526;50.948;6.590;2023-08-12T07:53:33;5.45;;;3.40;;
74170;SDS011;62526;50.948;6.590;2023-08-12T07:56:00;4.45;;;3.53;;
74170;SDS011;62526;50.948;6.590;2023-08-12T07:58:26;7.57;;;4.50;;
74170;SDS011;62526;50.948;6.590;2023-08-12T08:00:53;4.57;;;3.85;;
74170;SDS011;62526;50.948;6.590;2023-08-12T08:03:19;5.20;;;3.65;;
74170;SDS011;62526;50.948;6.590;2023-08-12T08:05:46;7.22;;;3.58;;
74170;SDS011;62526;50.948;6.590;2023-08-12T08:08:13;6.12;;;3.60;;
74170;SDS011;62526;50.948;6.590;2023-08-12T08:10:39;3.80;;;3.33;;
74170;SDS011;62526;50.948;6.590;2023-08-12T08:13:06;4.85;;;3.28;;
74170;SDS011;62526;50.948;6.590;2023-08-12T08:15:33;4.60;;;2.60;;
74170;SDS011;62526;50.948;6.590;2023-08-12T08:18:00;3.50;;;2.40;;
74170;SDS011;62526;50.948;6.590;2023-08-12T08:20:27;4.00;;;2.70;;
74170;SDS011;62526;50.948;6.590;2023-08-12T08:22:53;3.72;;;2.50;;
74170;SDS011;62526;50.948;6.590;2023-08-12T08:25:20;5.90;;;2.37;;
74170;SDS011;62526;50.948;6.590;2023-08-12T08:27:47;3.92;;;2.78;;
74170;SDS011;62526;50.948;6.590;2023-08-12T08:30:14;4.55;;;2.75;;
74170;SDS011;62526;50.948;6.590;2023-08-12T08:32:41;3.28;;;2.55;;
74170;SDS011;62526;50.948;6.590;2023-08-12T08:35:11;3.85;;;2.53;;
74170;SDS011;62526;50.948;6.590;2023-08-12T08:37:39;5.03;;;2.50;;
74170;SDS011;62526;50.948;6.590;2023-08-12T08:40:06;3.67;;;2.55;;
74170;SDS011;62526;50.948;6.590;2023-08-12T08:42:34;4.47;;;2.30;;
74170;SDS011;62526;50.948;6.590;2023-08-12T08:45:01;5.18;;;2.17;;
74170;SDS011;62526;50.948;6.590;2023-08-12T08:47:28;6.40;;;2.40;;
74170;SDS011;62526;50.948;6.590;2023-08-12T08:49:55;2.28;;;2.08;;
74170;SDS011;62526;50.948;6.590;2023-08-12T08:52:23;4.32;;;2.28;;
74170;SDS011;62526;50.948;6.590;2023-08-12T08:54:51;4.03;;;2.20;;
74170;SDS011;62526;50.948;6.590;2023-08-12T08:57:19;2.45;;;2.20;;
74170;SDS011;62526;50.948;6.590;2023-08-12T08:59:46;4.50;;;1.95;;
74170;SDS011;62526;50.948;6.590;2023-08-12T09:02:15;5.93;;;1.80;;
74170;SDS011;62526;50.948;6.590;2023-08-12T09:04:41;4.93;;;1.90;;
74170;SDS011;62526;50.948;6.590;2023-08-12T09:07:10;2.83;;;1.80;;
74170;SDS011;62526;50.948;6.590;2023-08-12T09:09:37;2.85;;;1.92;;
74170;SDS011;62526;50.948;6.590;2023-08-12T09:12:04;4.65;;;2.10;;
74170;SDS011;62526;50.948;6.590;2023-08-12T09:14:32;2.70;;;1.73;;
74170;SDS011;62526;50.948;6.590;2023-08-12T09:16:59;2.28;;;1.75;;
74170;SDS011;62526;50.948;6.590;2023-08-12T09:19:25;3.58;;;1.90;;
74170;SDS011;62526;50.948;6.590;2023-08-12T09:21:54;6.85;;;1.90;;
74170;SDS011;62526;50.948;6.590;2023-08-12T09:24:25;3.40;;;1.80;;
74170;SDS011;62526;50.948;6.590;2023-08-12T09:26:52;2.12;;;1.83;;
74170;SDS011;62526;50.948;6.590;2023-08-12T09:29:22;1.87;;;1.70;;
74170;SDS011;62526;50.948;6.590;2023-08-12T09:31:49;3.85;;;1.62;;
74170;SDS011;62526;50.948;6.590;2023-08-12T09:34:17;3.90;;;1.62;;
74170;SDS011;62526;50.948;6.590;2023-08-12T09:36:43;2.72;;;2.00;;
74170;SDS011;62526;50.948;6.590;2023-08-12T09:39:10;5.60;;;2.00;;
74170;SDS011;62526;50.948;6.590;2023-08-12T09:41:37;4.87;;;1.62;;
74170;SDS011;62526;50.948;6.590;2023-08-12T09:44:03;2.60;;;1.62;;
74170;SDS011;62526;50.948;6.590;2023-08-12T09:46:32;4.37;;;1.77;;
74170;SDS011;62526;50.948;6.590;2023-08-12T09:48:59;4.53;;;1.52;;
74170;SDS011;62526;50.948;6.590;2023-08-12T09:51:26;4.03;;;1.83;;
74170;SDS011;62526;50.948;6.590;2023-08-12T09:53:54;3.10;;;1.73;;
74170;SDS011;62526;50.948;6.590;2023-08-12T09:56:22;5.15;;;1.62;;
74170;SDS011;62526;50.948;6.590;2023-08-12T09:58:48;2.90;;;1.40;;
74170;SDS011;62526;50.948;6.590;2023-08-12T10:01:18;2.22;;;1.70;;
74170;SDS011;62526;50.948;6.590;2023-08-12T10:03:44;3.83;;;1.80;;
74170;SDS011;62526;50.948;6.590;2023-08-12T10:06:11;5.30;;;1.42;;
74170;SDS011;62526;50.948;6.590;2023-08-12T10:08:38;1.50;;;1.40;;
74170;SDS011;62526;50.948;6.590;2023-08-12T10:11:05;3.22;;;1.50;;
74170;SDS011;62526;50.948;6.590;2023-08-12T10:13:32;4.40;;;1.60;;
74170;SDS011;62526;50.948;6.590;2023-08-12T10:15:59;1.70;;;1.58;;
74170;SDS011;62526;50.948;6.590;2023-08-12T10:18:27;3.45;;;1.40;;
74170;SDS011;62526;50.948;6.590;2023-08-12T10:20:54;4.20;;;1.45;;
74170;SDS011;62526;50.948;6.590;2023-08-12T10:23:21;4.90;;;1.85;;
74170;SDS011;62526;50.948;6.590;2023-08-12T10:25:48;4.12;;;1.70;;
74170;SDS011;62526;50.948;6.590;2023-08-12T10:28:18;4.20;;;1.45;;
74170;SDS011;62526;50.948;6.590;2023-08-12T10:30:44;2.33;;;1.70;;
74170;SDS011;62526;50.948;6.590;2023-08-12T10:33:14;1.15;;;1.12;;
74170;SDS011;62526;50.948;6.590;2023-08-12T10:35:43;1.33;;;1.23;;
74170;SDS011;62526;50.948;6.590;2023-08-12T10:38:10;1.27;;;1.20;;
74170;SDS011;62526;50.948;6.590;2023-08-12T10:40:41;1.50;;;1.35;;
74170;SDS011;62526;50.948;6.590;2023-08-12T10:43:07;1.98;;;1.33;;
74170;SDS011;62526;50.948;6.590;2023-08-12T10:45:42;3.10;;;1.48;;
74170;SDS011;62526;50.948;6.590;2023-08-12T10:48:18;1.67;;;1.30;;
74170;SDS011;62526;50.948;6.590;2023-08-12T10:50:48;3.15;;;1.25;;
74170;SDS011;62526;50.948;6.590;2023-08-12T10:55:49;3.60;;;1.27;;
74170;SDS011;62526;50.948;6.590;2023-08-12T11:00:54;1.90;;;1.50;;
74170;SDS011;62526;50.948;6.590;2023-08-12T11:03:22;3.22;;;1.42;;
74170;SDS011;62526;50.948;6.590;2023-08-12T11:05:48;2.95;;;1.70;;
74170;SDS011;62526;50.948;6.590;2023-08-12T11:08:15;1.87;;;1.35;;
74170;SDS011;62526;50.948;6.590;2023-08-12T11:10:42;2.17;;;1.73;;
74170;SDS011;62526;50.948;6.590;2023-08-12T11:13:10;3.45;;;1.90;;
74170;SDS011;62526;50.948;6.590;2023-08-12T11:15:40;1.50;;;1.40;;
74170;SDS011;62526;50.948;6.590;2023-08-12T11:18:08;2.00;;;1.55;;
74170;SDS011;62526;50.948;6.590;2023-08-12T11:20:37;3.12;;;1.75;;
74170;SDS011;62526;50.948;6.590;2023-08-12T11:23:05;1.80;;;1.62;;
74170;SDS011;62526;50.948;6.590;2023-08-12T11:25:31;2.80;;;1.60;;
74170;SDS011;62526;50.948;6.590;2023-08-12T11:28:03;3.03;;;1.42;;
74170;SDS011;62526;50.948;6.590;2023-08-12T11:30:30;1.52;;;1.40;;
74170;SDS011;62526;50.948;6.590;2023-08-12T11:32:57;3.72;;;1.73;;
74170;SDS011;62526;50.948;6.590;2023-08-12T11:35:24;2.58;;;1.37;;
74170;SDS011;62526;50.948;6.590;2023-08-12T11:37:53;3.58;;;1.75;;
74170;SDS011;62526;50.948;6.590;2023-08-12T11:40:19;3.30;;;1.70;;
74170;SDS011;62526;50.948;6.590;2023-08-12T11:42:46;2.00;;;1.80;;
74170;SDS011;62526;50.948;6.590;2023-08-12T11:45:15;2.70;;;1.40;;
74170;SDS011;62526;50.948;6.590;2023-08-12T11:47:40;1.70;;;1.55;;
74170;SDS011;62526;50.948;6.590;2023-08-12T11:50:08;2.00;;;1.70;;
74170;SDS011;62526;50.948;6.590;2023-08-12T11:52:36;2.05;;;1.62;;
74170;SDS011;62526;50.948;6.590;2023-08-12T11:55:03;2.45;;;1.60;;
74170;SDS011;62526;50.948;6.590;2023-08-12T11:57:32;2.58;;;1.42;;
74170;SDS011;62526;50.948;6.590;2023-08-12T12:00:00;2.00;;;1.30;;
74170;SDS011;62526;50.948;6.590;2023-08-12T12:02:28;2.20;;;1.55;;
74170;SDS011;62526;50.948;6.590;2023-08-12T12:04:54;1.70;;;1.40;;
74170;SDS011;62526;50.948;6.590;2023-08-12T12:07:22;1.23;;;1.12;;
74170;SDS011;62526;50.948;6.590;2023-08-12T12:09:51;1.92;;;1.27;;
74170;SDS011;62526;50.948;6.590;2023-08-12T12:12:16;1.37;;;1.27;;
74170;SDS011;62526;50.948;6.590;2023-08-12T12:14:43;1.52;;;1.20;;
74170;SDS011;62526;50.948;6.590;2023-08-12T12:17:10;3.28;;;1.20;;
74170;SDS011;62526;50.948;6.590;2023-08-12T12:19:39;2.35;;;1.05;;
74170;SDS011;62526;50.948;6.590;2023-08-12T12:22:05;1.27;;;1.10;;
74170;SDS011;62526;50.948;6.590;2023-08-12T12:24:38;2.67;;;1.12;;
74170;SDS011;62526;50.948;6.590;2023-08-12T12:27:00;1.50;;;1.20;;
74170;SDS011;62526;50.948;6.590;2023-08-12T12:29:26;1.40;;;1.30;;
74170;SDS011;62526;50.948;6.590;2023-08-12T12:31:54;1.48;;;1.37;;
74170;SDS011;62526;50.948;6.590;2023-08-12T12:34:21;3.95;;;1.30;;
74170;SDS011;62526;50.948;6.590;2023-08-12T12:36:48;1.40;;;1.30;;
74170;SDS011;62526;50.948;6.590;2023-08-12T12:39:15;1.25;;;1.15;;
74170;SDS011;62526;50.948;6.590;2023-08-12T12:41:41;1.33;;;0.93;;
74170;SDS011;62526;50.948;6.590;2023-08-12T12:44:09;1.85;;;1.00;;
74170;SDS011;62526;50.948;6.590;2023-08-12T12:46:36;1.02;;;1.00;;
74170;SDS011;62526;50.948;6.590;2023-08-12T12:49:03;1.05;;;1.00;;
74170;SDS011;62526;50.948;6.590;2023-08-12T12:51:36;1.35;;;1.10;;
74170;SDS011;62526;50.948;6.590;2023-08-12T12:54:03;1.87;;;1.23;;
74170;SDS011;62526;50.948;6.590;2023-08-12T12:56:31;1.33;;;1.00;;
74170;SDS011;62526;50.948;6.590;2023-08-12T12:58:57;1.27;;;1.23;;
74170;SDS011;62526;50.948;6.590;2023-08-12T13:01:25;1.20;;;1.10;;
74170;SDS011;62526;50.948;6.590;2023-08-12T13:03:52;2.67;;;1.27;;
74170;SDS011;62526;50.948;6.590;2023-08-12T13:06:18;1.00;;;1.00;;
74170;SDS011;62526;50.948;6.590;2023-08-12T13:08:46;1.00;;;1.00;;
74170;SDS011;62526;50.948;6.590;2023-08-12T13:11:13;1.40;;;1.30;;
74170;SDS011;62526;50.948;6.590;2023-08-12T13:13:40;1.40;;;1.30;;
74170;SDS011;62526;50.948;6.590;2023-08-12T13:16:07;2.00;;;1.80;;
74170;SDS011;62526;50.948;6.590;2023-08-12T13:18:35;3.58;;;1.60;;
74170;SDS011;62526;50.948;6.590;2023-08-12T13:21:03;1.62;;;1.52;;
74170;SDS011;62526;50.948;6.590;2023-08-12T13:23:30;3.30;;;1.80;;
74170;SDS011;62526;50.948;6.590;2023-08-12T13:25:57;1.70;;;1.50;;
74170;SDS011;62526;50.948;6.590;2023-08-12T13:28:24;2.92;;;1.98;;
74170;SDS011;62526;50.948;6.590;2023-08-12T13:30:50;1.83;;;1.67;;
74170;SDS011;62526;50.948;6.590;2023-08-12T13:33:18;1.73;;;1.42;;
74170;SDS011;62526;50.948;6.590;2023-08-12T13:35:44;2.83;;;1.48;;
74170;SDS011;62526;50.948;6.590;2023-08-12T13:38:13;2.33;;;1.60;;
74170;SDS011;62526;50.948;6.590;2023-08-12T13:40:39;1.58;;;1.48;;
74170;SDS011;62526;50.948;6.590;2023-08-12T13:43:07;1.25;;;1.12;;
74170;SDS011;62526;50.948;6.590;2023-08-12T13:45:33;2.55;;;1.37;;
74170;SDS011;62526;50.948;6.590;2023-08-12T13:48:01;5.55;;;1.48;;
74170;SDS011;62526;50.948;6.590;2023-08-12T13:50:27;1.37;;;1.27;;
74170;SDS011;62526;50.948;6.590;2023-08-12T13:52:54;1.30;;;1.20;;
74170;SDS011;62526;50.948;6.590;2023-08-12T13:55:21;1.02;;;0.98;;
74170;SDS011;62526;50.948;6.590;2023-08-12T13:57:48;1.23;;;1.02;;
74170;SDS011;62526;50.948;6.590;2023-08-12T14:00:15;1.92;;;0.90;;
74170;SDS011;62526;50.948;6.590;2023-08-12T14:02:42;2.62;;;0.90;;
74170;SDS011;62526;50.948;6.590;2023-08-12T14:05:09;0.77;;;0.77;;
74170;SDS011;62526;50.948;6.590;2023-08-12T14:07:36;0.62;;;0.62;;
74170;SDS011;62526;50.948;6.590;2023-08-12T14:10:03;3.42;;;1.23;;
74170;SDS011;62526;50.948;6.590;2023-08-12T14:12:31;1.10;;;1.05;;
74170;SDS011;62526;50.948;6.590;2023-08-12T14:14:59;0.80;;;0.80;;
74170;SDS011;62526;50.948;6.590;2023-08-12T14:17:26;1.90;;;1.12;;
74170;SDS011;62526;50.948;6.590;2023-08-12T14:19:53;1.10;;;0.90;;
74170;SDS011;62526;50.948;6.590;2023-08-12T14:22:20;1.62;;;1.10;;
74170;SDS011;62526;50.948;6.590;2023-08-12T14:24:48;3.87;;;1.08;;
74170;SDS011;62526;50.948;6.590;2023-08-12T14:27:15;1.10;;;0.80;;
74170;SDS011;62526;50.948;6.590;2023-08-12T14:29:42;1.10;;;1.00;;
74170;SDS011;62526;50.948;6.590;2023-08-12T14:32:09;1.42;;;0.90;;
74170;SDS011;62526;50.948;6.590;2023-08-12T14:34:37;1.17;;;1.08;;
74170;SDS011;62526;50.948;6.590;2023-08-12T14:37:03;1.77;;;0.95;;
74170;SDS011;62526;50.948;6.590;2023-08-12T14:39:31;0.93;;;0.90;;